Time;durP1;ratioP1;P1;durP2;ratioP2;P2;SDS_P1;SDS_P2;PMS_P1;PMS_P2;Temp;Humidity;BMP_temperature;BMP_pressure;BME280_temperature;BME280_humidity;BME280_pressure;Samples;Min_cycle;Max_cycle;Signal;HPM_P1;HPM_P2
2023/10/14 00:02:05;;;;;;;14.47;8.40;;;13.40;87.50;;;;;;5045076;28;20401;-56
2023/10/14 00:04:30;;;;;;;15.33;8.50;;;13.40;88.90;;;;;;5044659;28;20433;-53
2023/10/14 00:06:57;;;;;;;14.20;8.20;;;13.40;89.90;;;;;;5046043;28;20422;-54
2023/10/14 00:09:24;;;;;;;16.13;8.50;;;13.50;90.60;;;;;;5045240;28;20222;-54
2023/10/14 00:11:55;;;;;;;14.83;7.80;;;13.50;89.90;;;;;;5044620;28;20425;-55
2023/10/14 00:14:23;;;;;;;15.80;7.70;;;13.50;90.10;;;;;;5046324;28;20441;-55
2023/10/14 00:16:49;;;;;;;12.67;7.83;;;13.50;90.30;;;;;;5042768;28;21055;-58
2023/10/14 00:19:18;;;;;;;14.57;8.20;;;13.50;90.30;;;;;;5044409;28;20998;-57
2023/10/14 00:21:44;;;;;;;13.50;6.97;;;13.50;90.30;;;;;;5045002;28;20433;-54
2023/10/14 00:24:10;;;;;;;12.40;7.50;;;13.60;90.40;;;;;;5043034;28;21008;-53
2023/10/14 00:26:36;;;;;;;12.60;7.60;;;13.60;90.70;;;;;;5038897;28;20504;-56
2023/10/14 00:31:44;;;;;;;11.43;7.40;;;13.60;90.70;;;;;;5045320;28;20224;-58
2023/10/14 00:34:09;;;;;;;13.00;7.80;;;13.60;91.20;;;;;;5046099;28;20499;-54
2023/10/14 00:36:35;;;;;;;12.83;6.83;;;13.60;91.70;;;;;;5043733;28;20453;-56
2023/10/14 00:39:12;;;;;;;13.20;7.57;;;13.60;91.90;;;;;;5044867;28;20221;-57
2023/10/14 00:41:50;;;;;;;14.40;7.80;;;13.60;92.20;;;;;;5044399;28;20250;-54
2023/10/14 00:44:17;;;;;;;14.53;8.30;;;13.60;91.30;;;;;;5047425;28;20486;-56
2023/10/14 00:46:48;;;;;;;13.13;7.57;;;13.60;91.40;;;;;;5043954;28;20433;-56
2023/10/14 00:49:34;;;;;;;13.50;8.10;;;13.60;91.30;;;;;;5041532;28;20493;-55
2023/10/14 00:52:07;;;;;;;12.90;7.30;;;13.50;91.60;;;;;;5046885;28;20418;-59
2023/10/14 00:57:09;;;;;;;10.50;7.47;;;13.50;90.20;;;;;;5039692;28;20804;-54
2023/10/14 00:59:35;;;;;;;10.07;6.80;;;13.50;90.00;;;;;;5042238;28;20463;-56
2023/10/14 01:02:01;;;;;;;12.30;7.00;;;13.50;90.70;;;;;;5046582;28;20417;-55
2023/10/14 01:04:32;;;;;;;11.07;7.27;;;13.50;90.90;;;;;;5044684;28;20597;-55
2023/10/14 01:09:33;;;;;;;15.20;7.23;;;13.60;91.10;;;;;;5044711;28;20543;-57
2023/10/14 01:12:16;;;;;;;14.27;8.07;;;13.60;91.10;;;;;;5046325;28;20405;-57
2023/10/14 01:14:45;;;;;;;13.37;7.70;;;13.60;90.70;;;;;;5039384;28;20515;-57
2023/10/14 01:17:28;;;;;;;14.57;8.70;;;13.60;90.60;;;;;;5047915;28;20405;-56
2023/10/14 01:19:55;;;;;;;15.90;8.97;;;13.60;91.20;;;;;;5045768;28;20844;-59
2023/10/14 01:22:21;;;;;;;17.80;8.17;;;13.70;91.70;;;;;;5047421;28;20432;-55
2023/10/14 01:24:48;;;;;;;13.60;8.37;;;13.70;93.70;;;;;;5047608;28;20421;-55
2023/10/14 01:27:16;;;;;;;10.67;6.90;;;13.70;95.30;;;;;;5049994;28;20422;-54
2023/10/14 01:29:43;;;;;;;13.00;6.93;;;13.70;99.90;;;;;;5044634;28;20445;-55
2023/10/14 01:35:12;;;;;;;11.87;6.83;;;14.40;99.90;;;;;;5048637;28;20464;-53
2023/10/14 01:37:38;;;;;;;14.43;8.23;;;14.80;99.90;;;;;;5048761;28;20453;-57
2023/10/14 01:42:49;;;;;;;12.80;7.97;;;15.50;99.90;;;;;;5048147;28;20441;-56
2023/10/14 01:45:20;;;;;;;20.60;8.30;;;15.70;99.90;;;;;;5048092;28;21196;-53
2023/10/14 01:47:57;;;;;;;11.83;8.27;;;15.80;99.90;;;;;;5048693;28;20985;-56
2023/10/14 01:50:22;;;;;;;9.83;7.53;;;15.80;99.90;;;;;;5043955;28;20440;-55
2023/10/14 01:52:52;;;;;;;12.20;7.80;;;15.80;99.90;;;;;;5049204;28;20433;-60
2023/10/14 01:55:20;;;;;;;15.80;8.00;;;15.80;99.90;;;;;;5045468;28;20678;-57
2023/10/14 01:57:47;;;;;;;13.03;7.73;;;15.70;99.90;;;;;;5043420;28;20480;-56
2023/10/14 02:00:25;;;;;;;14.87;7.97;;;15.60;99.90;;;;;;5044075;28;20437;-55
2023/10/14 02:03:06;;;;;;;12.97;7.87;;;15.60;99.90;;;;;;5043776;28;20430;-59
2023/10/14 02:05:42;;;;;;;11.80;7.63;;;15.50;99.90;;;;;;5044084;28;20796;-57
2023/10/14 02:08:21;;;;;;;15.70;8.67;;;15.50;99.90;;;;;;5042494;28;20487;-56
2023/10/14 02:10:47;;;;;;;12.43;6.63;;;15.50;99.90;;;;;;5044593;28;20448;-57
2023/10/14 02:13:22;;;;;;;17.27;8.00;;;15.50;99.90;;;;;;5047304;28;20447;-55
2023/10/14 02:15:59;;;;;;;18.80;7.87;;;15.50;99.90;;;;;;5047357;28;20432;-56
2023/10/14 02:18:25;;;;;;;13.10;8.13;;;15.50;99.90;;;;;;5041995;28;20457;-59
2023/10/14 02:21:04;;;;;;;19.13;7.27;;;15.50;99.90;;;;;;5043274;28;22420;-56
2023/10/14 02:23:43;;;;;;;12.17;7.77;;;15.50;99.90;;;;;;5040273;28;20179;-60
2023/10/14 02:26:25;;;;;;;10.13;7.50;;;15.50;99.90;;;;;;5041983;28;22305;-55
2023/10/14 02:28:52;;;;;;;9.80;7.60;;;15.50;99.90;;;;;;5036774;28;21021;-56
2023/10/14 02:34:04;;;;;;;13.90;7.50;;;15.40;99.90;;;;;;5042286;28;20881;-57
2023/10/14 02:36:29;;;;;;;11.73;6.67;;;15.40;99.90;;;;;;5040873;28;20955;-57
2023/10/14 02:38:57;;;;;;;11.40;7.13;;;15.40;99.90;;;;;;5042352;28;20487;-56
2023/10/14 02:41:26;;;;;;;10.70;6.67;;;15.40;99.90;;;;;;5038994;28;20171;-56
2023/10/14 02:44:18;;;;;;;12.43;8.20;;;15.50;99.90;;;;;;5041857;28;20507;-54
2023/10/14 02:46:45;;;;;;;9.73;6.80;;;15.50;99.90;;;;;;5042627;28;20492;-59
2023/10/14 02:49:14;;;;;;;12.50;8.17;;;15.50;99.90;;;;;;5041300;28;20821;-61
2023/10/14 02:51:44;;;;;;;13.60;9.03;;;15.60;99.90;;;;;;5041990;28;20967;-56
2023/10/14 02:59:29;;;;;;;10.03;7.10;;;15.70;99.90;;;;;;5041936;28;20469;-57
2023/10/14 03:07:28;;;;;;;11.70;8.50;;;15.80;99.90;;;;;;5040725;28;20830;-57
2023/10/14 03:10:18;;;;;;;13.30;7.73;;;15.80;99.90;;;;;;5040086;28;20559;-59
2023/10/14 03:12:48;;;;;;;13.10;7.43;;;15.80;99.90;;;;;;5041000;28;20824;-58
2023/10/14 03:15:19;;;;;;;13.80;8.10;;;15.90;99.90;;;;;;5042295;28;20417;-59
2023/10/14 03:17:56;;;;;;;13.53;7.50;;;15.90;99.90;;;;;;5042657;28;21044;-59
2023/10/14 03:22:54;;;;;;;9.93;7.40;;;15.90;99.90;;;;;;5038998;28;20978;-59
2023/10/14 03:25:23;;;;;;;10.83;7.60;;;15.90;99.90;;;;;;5041597;28;20440;-59
2023/10/14 03:27:50;;;;;;;15.13;7.00;;;15.90;99.90;;;;;;5044189;28;20183;-59
2023/10/14 03:30:17;;;;;;;16.73;7.97;;;16.00;99.90;;;;;;5041637;28;20457;-59
2023/10/14 03:32:43;;;;;;;9.10;7.60;;;15.90;99.90;;;;;;5040725;28;20437;-59
2023/10/14 03:35:13;;;;;;;11.00;7.70;;;15.90;99.90;;;;;;5045478;28;20425;-59
2023/10/14 03:37:52;;;;;;;13.33;7.20;;;16.00;99.90;;;;;;5040487;28;20199;-60
2023/10/14 03:43:10;;;;;;;13.83;7.60;;;16.00;99.90;;;;;;5041253;28;20408;-59
2023/10/14 03:45:47;;;;;;;8.10;6.77;;;16.00;99.90;;;;;;5041527;28;20429;-58
2023/10/14 03:48:13;;;;;;;12.23;6.87;;;16.00;99.90;;;;;;5038299;28;20425;-59
2023/10/14 03:50:39;;;;;;;11.13;6.93;;;16.00;99.90;;;;;;5038352;28;20472;-59
2023/10/14 03:53:08;;;;;;;13.03;6.70;;;16.00;99.90;;;;;;5040560;28;20512;-59
2023/10/14 03:55:33;;;;;;;12.70;7.30;;;15.90;99.90;;;;;;5041017;28;20422;-59
2023/10/14 03:58:05;;;;;;;11.93;6.80;;;15.90;99.90;;;;;;5039170;28;20453;-59
2023/10/14 04:00:37;;;;;;;12.23;7.33;;;16.00;99.90;;;;;;5038737;28;20166;-57
2023/10/14 04:03:12;;;;;;;11.03;7.20;;;15.90;99.90;;;;;;5041255;28;20422;-58
2023/10/14 04:05:52;;;;;;;8.83;6.53;;;15.90;99.90;;;;;;5043010;28;20421;-59
2023/10/14 04:08:25;;;;;;;10.50;6.70;;;15.90;99.90;;;;;;5038037;28;20525;-59
2023/10/14 04:11:03;;;;;;;11.10;7.03;;;15.90;99.90;;;;;;5039601;28;20800;-59
2023/10/14 04:13:34;;;;;;;8.13;6.73;;;15.90;99.90;;;;;;5040160;28;20425;-59
2023/10/14 04:15:59;;;;;;;14.53;7.10;;;15.90;99.90;;;;;;5039741;28;20585;-59
2023/10/14 04:18:25;;;;;;;12.23;6.93;;;15.90;99.90;;;;;;5040296;28;20866;-59
2023/10/14 04:24:08;;;;;;;11.13;6.77;;;15.90;99.90;;;;;;5035873;28;20454;-58
2023/10/14 04:26:34;;;;;;;10.23;6.80;;;15.90;99.90;;;;;;5037464;28;20559;-59
2023/10/14 04:29:02;;;;;;;15.60;7.77;;;15.90;99.90;;;;;;5039032;28;20454;-60
2023/10/14 04:31:39;;;;;;;16.37;7.50;;;15.90;99.90;;;;;;5038377;28;20480;-59
2023/10/14 04:34:14;;;;;;;12.53;6.77;;;15.80;99.90;;;;;;5042060;28;20436;-59
2023/10/14 04:36:53;;;;;;;13.60;7.47;;;15.80;99.90;;;;;;5041561;28;20453;-59
2023/10/14 04:39:26;;;;;;;11.13;6.83;;;15.80;99.90;;;;;;5040885;28;20472;-59
2023/10/14 04:44:59;;;;;;;13.87;6.90;;;15.80;99.90;;;;;;5035731;28;20426;-59
2023/10/14 04:47:47;;;;;;;11.13;6.70;;;15.80;99.90;;;;;;5041704;28;21410;-59
2023/10/14 04:50:14;;;;;;;12.97;6.97;;;15.80;99.90;;;;;;5040662;28;20453;-55
2023/10/14 04:52:48;;;;;;;18.53;7.83;;;15.70;99.90;;;;;;5038133;28;20433;-58
2023/10/14 05:00:41;;;;;;;11.50;7.30;;;15.70;99.90;;;;;;5034325;28;21461;-59
2023/10/14 05:03:14;;;;;;;9.40;6.90;;;15.60;99.90;;;;;;5036702;28;20505;-59
2023/10/14 05:05:49;;;;;;;13.53;7.87;;;15.60;99.90;;;;;;5040451;28;20845;-61
2023/10/14 05:08:21;;;;;;;12.37;7.07;;;15.60;99.90;;;;;;5048399;28;20551;-59
2023/10/14 05:10:50;;;;;;;10.27;7.70;;;15.60;99.90;;;;;;5041244;28;20437;-59
2023/10/14 05:13:19;;;;;;;12.33;7.83;;;15.60;99.90;;;;;;5042362;28;20422;-59
2023/10/14 05:15:52;;;;;;;10.40;6.80;;;15.60;99.90;;;;;;5040745;28;20433;-59
2023/10/14 05:18:27;;;;;;;11.07;7.17;;;15.50;99.90;;;;;;5040704;28;20457;-60
2023/10/14 05:21:09;;;;;;;13.63;7.13;;;15.50;99.90;;;;;;5042310;28;20421;-60
2023/10/14 05:23:38;;;;;;;15.73;7.10;;;15.50;99.90;;;;;;5046133;28;20437;-61
2023/10/14 05:26:06;;;;;;;11.60;7.63;;;15.50;99.90;;;;;;5037388;28;20527;-60
2023/10/14 05:28:35;;;;;;;15.07;6.97;;;15.50;99.90;;;;;;5040218;28;20595;-59
2023/10/14 05:31:08;;;;;;;13.40;8.07;;;15.50;99.90;;;;;;5044926;28;20416;-59
2023/10/14 05:33:34;;;;;;;16.80;7.20;;;15.40;99.90;;;;;;5044931;28;20421;-59
2023/10/14 05:36:05;;;;;;;10.33;7.40;;;15.40;99.90;;;;;;5043536;28;20814;-60
2023/10/14 05:38:31;;;;;;;12.60;7.70;;;15.40;99.90;;;;;;5037808;28;20475;-59
2023/10/14 05:41:00;;;;;;;11.70;7.67;;;15.40;99.90;;;;;;5035657;28;20433;-59
2023/10/14 05:43:26;;;;;;;9.70;7.50;;;15.40;99.90;;;;;;5042355;28;20445;-55
2023/10/14 05:45:52;;;;;;;12.77;6.73;;;15.30;99.90;;;;;;5032993;28;20429;-55
2023/10/14 05:48:19;;;;;;;16.83;7.37;;;15.30;99.90;;;;;;5043077;28;20874;-60
2023/10/14 05:50:45;;;;;;;12.63;7.63;;;15.30;99.90;;;;;;5037551;28;20228;-59
2023/10/14 05:53:12;;;;;;;12.03;7.10;;;15.30;99.90;;;;;;5040979;28;20429;-60
2023/10/14 05:55:39;;;;;;;12.23;7.73;;;15.30;99.90;;;;;;5043655;28;20648;-58
2023/10/14 05:58:06;;;;;;;22.00;8.40;;;15.30;99.90;;;;;;5042113;28;20458;-58
2023/10/14 06:00:34;;;;;;;11.10;6.83;;;15.30;99.90;;;;;;5041468;28;20424;-56
2023/10/14 06:03:00;;;;;;;11.30;6.30;;;15.30;99.90;;;;;;5048263;28;20783;-58
2023/10/14 06:05:29;;;;;;;14.40;7.00;;;15.30;99.90;;;;;;5044056;28;20430;-57
2023/10/14 06:08:05;;;;;;;12.43;6.80;;;15.30;99.90;;;;;;5046569;28;20234;-54
2023/10/14 06:10:36;;;;;;;11.50;7.47;;;15.30;99.90;;;;;;5040501;28;20524;-58
2023/10/14 06:13:05;;;;;;;11.13;6.90;;;15.30;99.90;;;;;;5048372;28;20418;-58
2023/10/14 06:15:36;;;;;;;10.90;7.40;;;15.30;99.90;;;;;;5044934;28;20457;-59
2023/10/14 06:18:04;;;;;;;15.37;7.37;;;15.30;99.90;;;;;;5044502;28;20456;-61
2023/10/14 06:20:32;;;;;;;12.20;7.50;;;15.30;99.90;;;;;;5040294;28;20936;-60
2023/10/14 06:22:59;;;;;;;14.60;6.90;;;15.30;99.90;;;;;;5046816;28;20502;-60
2023/10/14 06:25:26;;;;;;;14.47;7.40;;;15.30;99.90;;;;;;5045406;28;20834;-60
2023/10/14 06:27:53;;;;;;;11.93;7.30;;;15.30;99.90;;;;;;5045356;28;20433;-61
2023/10/14 06:30:20;;;;;;;10.00;6.97;;;15.20;99.90;;;;;;5042404;28;20588;-61
2023/10/14 06:33:07;;;;;;;10.20;6.97;;;15.20;99.90;;;;;;5043567;28;20429;-61
2023/10/14 06:35:42;;;;;;;17.13;7.30;;;15.20;99.90;;;;;;5038452;28;20437;-56
2023/10/14 06:38:09;;;;;;;12.53;7.60;;;15.20;99.90;;;;;;5046010;28;20540;-58
2023/10/14 06:40:42;;;;;;;14.10;7.33;;;15.20;99.90;;;;;;5042099;28;20486;-58
2023/10/14 06:43:09;;;;;;;18.90;7.63;;;15.20;99.90;;;;;;5045581;28;20468;-58
2023/10/14 06:45:36;;;;;;;14.77;8.10;;;15.20;99.90;;;;;;5045060;28;20472;-58
2023/10/14 06:48:03;;;;;;;14.87;8.30;;;15.20;99.90;;;;;;5045841;28;20927;-58
2023/10/14 06:50:30;;;;;;;15.77;8.20;;;15.10;99.90;;;;;;5045379;28;20664;-58
2023/10/14 06:52:59;;;;;;;21.33;9.07;;;15.10;99.90;;;;;;5046455;28;20520;-59
2023/10/14 06:55:28;;;;;;;17.53;9.10;;;15.20;99.90;;;;;;5045600;28;20437;-59
2023/10/14 06:57:55;;;;;;;14.43;8.60;;;15.20;99.90;;;;;;5039967;28;20464;-59
2023/10/14 07:00:31;;;;;;;13.40;7.40;;;15.20;99.90;;;;;;5043572;28;20444;-58
2023/10/14 07:03:00;;;;;;;14.40;8.30;;;15.20;99.90;;;;;;5046385;28;20575;-59
2023/10/14 07:05:28;;;;;;;17.87;8.40;;;15.20;99.90;;;;;;5046851;28;20425;-59
2023/10/14 07:07:55;;;;;;;17.47;9.10;;;15.30;99.90;;;;;;5045042;28;20495;-59
2023/10/14 07:10:27;;;;;;;13.90;8.57;;;15.30;99.90;;;;;;5044892;28;20448;-59
2023/10/14 07:12:57;;;;;;;14.73;9.00;;;15.40;99.90;;;;;;5039713;28;20955;-59
2023/10/14 07:15:24;;;;;;;14.43;7.60;;;15.40;99.90;;;;;;5043084;28;20457;-59
2023/10/14 07:17:49;;;;;;;10.80;7.83;;;15.50;99.90;;;;;;5040181;28;21052;-60
2023/10/14 07:20:15;;;;;;;16.43;8.10;;;15.50;99.90;;;;;;5044266;28;20565;-58
2023/10/14 07:22:43;;;;;;;17.60;8.23;;;15.60;99.90;;;;;;5043615;28;20194;-58
2023/10/14 07:25:10;;;;;;;13.43;7.70;;;15.60;99.90;;;;;;5045293;28;20186;-58
2023/10/14 07:27:37;;;;;;;14.97;6.90;;;15.70;99.90;;;;;;5040412;28;21252;-59
2023/10/14 07:30:13;;;;;;;11.90;7.37;;;15.70;99.90;;;;;;5046815;28;20472;-58
2023/10/14 07:32:47;;;;;;;14.70;7.30;;;15.80;99.90;;;;;;5046131;28;21008;-58
2023/10/14 07:35:17;;;;;;;14.43;6.97;;;15.80;99.90;;;;;;5043918;28;20798;-59
2023/10/14 07:37:51;;;;;;;16.87;7.13;;;15.80;99.90;;;;;;5041370;28;21048;-60
2023/10/14 07:40:24;;;;;;;16.50;7.30;;;15.80;99.90;;;;;;5046117;28;20971;-59
2023/10/14 07:42:54;;;;;;;17.03;8.60;;;15.80;99.90;;;;;;5044238;28;20565;-58
2023/10/14 07:45:22;;;;;;;14.23;7.00;;;15.70;99.90;;;;;;5044487;28;20433;-59
2023/10/14 07:47:48;;;;;;;12.60;7.90;;;15.70;99.90;;;;;;5043989;28;20430;-59
2023/10/14 07:50:15;;;;;;;18.93;8.50;;;15.70;99.90;;;;;;5042788;28;20452;-59
2023/10/14 07:52:42;;;;;;;14.93;8.53;;;15.80;99.90;;;;;;5042816;28;20494;-60
2023/10/14 07:55:15;;;;;;;20.50;9.63;;;15.80;99.90;;;;;;5043496;28;20932;-58
2023/10/14 07:57:41;;;;;;;15.50;9.10;;;15.80;99.90;;;;;;5043444;28;20465;-59
2023/10/14 08:00:14;;;;;;;19.77;11.63;;;15.80;99.90;;;;;;5037183;28;21034;-58
2023/10/14 08:02:42;;;;;;;20.57;8.70;;;15.90;99.90;;;;;;5031601;28;20426;-57
2023/10/14 08:05:09;;;;;;;16.67;8.60;;;15.90;99.90;;;;;;5040595;28;20460;-55
2023/10/14 08:07:42;;;;;;;16.93;7.30;;;16.00;99.90;;;;;;5044162;28;20441;-57
2023/10/14 08:10:17;;;;;;;9.23;6.43;;;16.00;99.90;;;;;;5041556;28;21179;-58
2023/10/14 08:12:45;;;;;;;12.20;6.67;;;16.10;99.90;;;;;;5046560;28;20766;-58
2023/10/14 08:15:11;;;;;;;15.47;6.23;;;16.10;99.90;;;;;;5046055;28;20435;-57
2023/10/14 08:17:37;;;;;;;10.70;6.80;;;16.20;99.90;;;;;;5043360;28;20450;-58
2023/10/14 08:20:12;;;;;;;15.80;7.00;;;16.20;99.90;;;;;;5042633;28;20194;-57
2023/10/14 08:22:39;;;;;;;14.87;7.20;;;16.30;99.90;;;;;;5046766;28;20320;-57
2023/10/14 08:25:06;;;;;;;16.70;6.93;;;16.40;99.90;;;;;;5039220;28;20436;-57
2023/10/14 08:27:33;;;;;;;10.90;7.07;;;16.40;99.90;;;;;;5040178;28;20576;-58
2023/10/14 08:30:00;;;;;;;15.63;6.57;;;16.40;99.90;;;;;;5041501;28;20457;-58
2023/10/14 08:32:26;;;;;;;18.27;7.43;;;16.40;99.90;;;;;;5042955;28;20950;-58
2023/10/14 08:34:52;;;;;;;16.63;7.40;;;16.40;99.90;;;;;;5044685;28;20586;-57
2023/10/14 08:37:17;;;;;;;13.07;7.20;;;16.40;99.90;;;;;;5041204;28;20948;-57
2023/10/14 08:39:44;;;;;;;18.33;7.77;;;16.40;99.90;;;;;;5042781;28;20191;-57
2023/10/14 08:42:10;;;;;;;12.10;6.60;;;16.40;99.90;;;;;;5040424;28;20171;-58
2023/10/14 08:44:42;;;;;;;11.00;6.57;;;16.40;99.90;;;;;;5044595;28;20440;-58
2023/10/14 08:47:13;;;;;;;16.17;6.80;;;16.40;99.90;;;;;;5044869;28;20429;-58
2023/10/14 08:49:41;;;;;;;21.30;7.20;;;16.30;99.90;;;;;;5041577;28;20842;-58
2023/10/14 08:52:09;;;;;;;12.03;6.80;;;16.30;99.90;;;;;;5034189;28;20434;-59
2023/10/14 08:54:37;;;;;;;15.00;7.80;;;16.30;99.90;;;;;;5047043;28;20517;-58
2023/10/14 08:57:02;;;;;;;11.47;5.67;;;16.20;99.90;;;;;;5042085;28;20432;-58
2023/10/14 08:59:28;;;;;;;15.13;6.80;;;16.20;99.90;;;;;;5042119;28;21025;-61
2023/10/14 09:01:56;;;;;;;14.03;6.37;;;16.10;99.90;;;;;;5043665;28;20178;-58
2023/10/14 09:04:28;;;;;;;12.10;5.97;;;16.10;99.90;;;;;;5043755;28;20785;-58
2023/10/14 09:07:02;;;;;;;11.80;6.30;;;16.00;99.90;;;;;;5042114;28;21061;-57
2023/10/14 09:09:29;;;;;;;11.00;6.07;;;16.00;99.90;;;;;;5040839;28;20464;-57
2023/10/14 09:12:07;;;;;;;12.17;7.00;;;15.90;99.90;;;;;;5037594;28;20941;-59
2023/10/14 09:14:33;;;;;;;11.70;5.40;;;15.90;99.90;;;;;;5042591;28;20413;-57
2023/10/14 09:19:46;;;;;;;12.90;5.83;;;15.70;99.90;;;;;;5082116;28;20278;-61
2023/10/14 09:22:21;;;;;;;7.20;4.73;;;15.70;99.90;;;;;;5080696;28;20419;-61
2023/10/14 09:24:51;;;;;;;10.17;4.97;;;15.60;99.90;;;;;;5080386;28;20446;-61
2023/10/14 09:27:17;;;;;;;10.70;5.27;;;15.60;99.90;;;;;;5086562;28;20420;-61
2023/10/14 09:29:43;;;;;;;8.30;5.73;;;15.60;99.90;;;;;;5061964;28;20425;-60
2023/10/14 09:32:09;;;;;;;11.53;6.40;;;15.60;99.90;;;;;;5061010;28;20440;-60
2023/10/14 09:34:35;;;;;;;9.60;5.70;;;15.60;99.90;;;;;;5065957;28;20763;-60
2023/10/14 09:37:10;;;;;;;10.40;6.03;;;15.60;99.90;;;;;;5062507;28;20228;-60
2023/10/14 09:39:44;;;;;;;10.27;6.23;;;15.70;99.90;;;;;;5064406;28;20297;-60
2023/10/14 09:42:11;;;;;;;16.50;7.40;;;15.70;99.90;;;;;;5078089;28;21108;-61
2023/10/14 09:44:43;;;;;;;6.80;5.70;;;15.70;99.90;;;;;;5069944;28;20432;-61
2023/10/14 09:47:14;;;;;;;10.77;6.10;;;15.80;99.90;;;;;;5064024;28;20450;-60
2023/10/14 09:49:43;;;;;;;13.90;6.60;;;15.80;99.90;;;;;;5076934;28;21094;-60
2023/10/14 09:52:14;;;;;;;9.23;5.87;;;15.80;99.90;;;;;;5074584;28;21131;-61
2023/10/14 09:54:41;;;;;;;12.50;6.67;;;15.80;99.90;;;;;;5076920;28;20598;-60
2023/10/14 09:57:12;;;;;;;10.53;6.20;;;15.80;99.90;;;;;;5068329;28;20464;-60
2023/10/14 09:59:41;;;;;;;10.17;6.33;;;15.80;99.90;;;;;;5068551;28;20468;-61
2023/10/14 10:02:09;;;;;;;12.03;7.50;;;15.80;99.90;;;;;;5073590;28;20840;-60
2023/10/14 10:04:39;;;;;;;11.93;6.60;;;15.80;99.90;;;;;;5066195;28;20439;-60
2023/10/14 10:07:31;;;;;;;15.03;7.70;;;15.80;99.90;;;;;;5071488;28;20840;-60
2023/10/14 10:10:12;;;;;;;18.17;7.00;;;15.80;99.90;;;;;;5069851;28;20416;-61
2023/10/14 10:12:39;;;;;;;16.10;6.30;;;15.80;99.90;;;;;;5062897;28;20429;-60
2023/10/14 10:15:06;;;;;;;12.13;8.27;;;15.80;99.90;;;;;;5067143;28;20515;-61
2023/10/14 10:17:39;;;;;;;13.20;6.17;;;15.80;99.90;;;;;;5063817;28;21092;-61
2023/10/14 10:20:17;;;;;;;14.97;7.40;;;15.80;99.90;;;;;;5067991;28;20561;-60
2023/10/14 10:22:55;;;;;;;11.13;6.37;;;15.80;99.90;;;;;;5067466;28;20417;-60
2023/10/14 10:25:23;;;;;;;9.07;6.47;;;15.80;99.90;;;;;;5063101;28;20437;-60
2023/10/14 10:27:52;;;;;;;16.03;8.47;;;15.80;99.90;;;;;;5063120;28;21342;-60
2023/10/14 10:30:19;;;;;;;10.73;7.07;;;15.80;99.90;;;;;;5062237;28;20429;-58
2023/10/14 10:32:51;;;;;;;14.20;7.70;;;15.70;99.90;;;;;;5070451;28;20467;-59
2023/10/14 10:35:19;;;;;;;14.43;5.90;;;15.80;99.90;;;;;;5066404;28;20885;-60
2023/10/14 10:37:55;;;;;;;12.20;6.10;;;15.80;99.90;;;;;;5062494;28;20556;-59
2023/10/14 10:40:26;;;;;;;15.33;7.30;;;15.80;99.90;;;;;;5066068;28;20429;-59
2023/10/14 10:42:57;;;;;;;11.07;6.73;;;15.90;99.90;;;;;;5079989;28;20433;-59
2023/10/14 10:45:26;;;;;;;14.67;6.80;;;16.10;99.90;;;;;;5066219;28;20417;-59
2023/10/14 10:47:56;;;;;;;11.77;6.37;;;16.40;99.90;;;;;;5061833;28;20512;-60
2023/10/14 10:50:34;;;;;;;10.43;5.50;;;16.60;99.90;;;;;;5063317;28;20465;-59
2023/10/14 10:53:06;;;;;;;10.43;5.37;;;16.80;99.90;;;;;;5059380;28;20439;-59
2023/10/14 10:55:41;;;;;;;8.50;5.40;;;16.80;99.90;;;;;;5063729;28;20520;-61
2023/10/14 10:58:11;;;;;;;7.63;4.50;;;16.90;99.90;;;;;;5064861;28;20460;-59
2023/10/14 11:00:38;;;;;;;6.10;3.90;;;16.80;99.90;;;;;;5064114;28;20425;-60
2023/10/14 11:03:05;;;;;;;6.53;4.30;;;16.80;99.90;;;;;;5065786;28;20417;-59
2023/10/14 11:05:33;;;;;;;6.73;3.10;;;17.00;99.90;;;;;;5063854;28;20421;-58
2023/10/14 11:08:01;;;;;;;5.53;2.90;;;17.30;99.90;;;;;;5067001;28;20453;-59
2023/10/14 11:10:28;;;;;;;2.90;2.70;;;17.60;99.90;;;;;;5065294;28;20420;-61
2023/10/14 11:12:58;;;;;;;3.57;2.97;;;17.70;99.90;;;;;;5066318;28;20793;-59
2023/10/14 11:15:25;;;;;;;4.60;2.70;;;17.80;99.90;;;;;;5068112;28;20447;-62
2023/10/14 11:17:58;;;;;;;4.47;2.63;;;17.80;99.90;;;;;;5065030;28;20464;-60
2023/10/14 11:20:31;;;;;;;5.63;2.63;;;17.80;99.90;;;;;;5061708;28;20441;-60
2023/10/14 11:22:57;;;;;;;3.57;2.37;;;17.90;99.90;;;;;;5059522;28;20432;-60
2023/10/14 11:25:23;;;;;;;3.00;2.50;;;18.00;99.90;;;;;;5065122;28;20435;-59
2023/10/14 11:27:49;;;;;;;2.90;2.37;;;18.20;99.90;;;;;;5065983;28;20456;-59
2023/10/14 11:30:18;;;;;;;5.40;2.27;;;18.30;99.90;;;;;;5059629;28;20247;-59
2023/10/14 11:32:51;;;;;;;3.90;2.53;;;18.20;99.90;;;;;;5062391;28;20185;-59
2023/10/14 11:35:21;;;;;;;2.50;1.93;;;18.20;99.90;;;;;;5067223;28;20453;-59
2023/10/14 11:37:56;;;;;;;3.20;1.93;;;18.20;99.90;;;;;;5065478;28;20472;-60
2023/10/14 11:40:25;;;;;;;5.80;2.17;;;18.20;99.90;;;;;;5059749;28;20951;-60
2023/10/14 11:42:56;;;;;;;2.40;2.20;;;18.20;99.90;;;;;;5062167;28;20772;-59
2023/10/14 11:45:22;;;;;;;3.03;2.00;;;18.10;99.90;;;;;;5066343;28;20420;-61
2023/10/14 11:47:48;;;;;;;6.70;2.10;;;17.90;99.90;;;;;;5062173;28;20529;-59
2023/10/14 11:50:17;;;;;;;5.40;2.63;;;17.90;99.90;;;;;;5062396;28;20198;-59
2023/10/14 11:52:46;;;;;;;3.40;2.30;;;17.80;99.90;;;;;;5069126;28;20444;-56
2023/10/14 11:55:14;;;;;;;3.13;2.37;;;17.70;99.90;;;;;;5061113;28;20447;-60
2023/10/14 11:57:44;;;;;;;3.50;2.27;;;17.60;99.90;;;;;;5065832;28;20547;-58
2023/10/14 12:00:20;;;;;;;3.07;2.20;;;17.60;99.90;;;;;;5065041;28;20429;-57
2023/10/14 12:02:49;;;;;;;3.90;2.60;;;17.50;99.90;;;;;;5063615;28;20432;-57
2023/10/14 12:05:16;;;;;;;4.27;2.37;;;17.30;99.90;;;;;;5062220;28;20437;-57
2023/10/14 12:07:43;;;;;;;2.37;2.10;;;17.30;99.90;;;;;;5061288;28;20531;-58
2023/10/14 12:10:09;;;;;;;4.73;3.20;;;17.20;99.90;;;;;;5059917;28;20440;-61
2023/10/14 12:12:37;;;;;;;7.47;2.33;;;17.10;99.90;;;;;;5052399;28;20495;-60
2023/10/14 12:15:05;;;;;;;3.90;2.73;;;17.30;99.90;;;;;;5061076;28;20465;-60
2023/10/14 12:17:34;;;;;;;3.50;2.77;;;17.60;99.90;;;;;;5063499;28;20472;-59
2023/10/14 12:20:04;;;;;;;3.10;2.27;;;17.60;99.90;;;;;;5059662;28;20536;-60
2023/10/14 12:22:30;;;;;;;5.07;2.50;;;17.60;99.90;;;;;;5064807;28;20531;-60
2023/10/14 12:24:56;;;;;;;4.40;2.30;;;17.50;99.90;;;;;;5064874;28;20451;-60
2023/10/14 12:27:25;;;;;;;1.80;1.10;;;17.50;99.90;;;;;;5063564;28;20669;-60
2023/10/14 12:29:52;;;;;;;2.57;0.90;;;17.30;99.90;;;;;;5061165;28;20424;-60
2023/10/14 12:32:18;;;;;;;1.20;1.00;;;17.10;99.90;;;;;;5062996;28;20834;-60
2023/10/14 12:34:46;;;;;;;1.10;1.00;;;16.70;99.90;;;;;;5062973;28;20433;-66
2023/10/14 12:37:18;;;;;;;1.43;1.00;;;16.40;99.90;;;;;;5062880;28;20989;-60
2023/10/14 12:40:11;;;;;;;1.83;1.10;;;16.10;99.90;;;;;;5061229;28;20487;-60
2023/10/14 12:42:46;;;;;;;1.93;0.90;;;15.90;99.90;;;;;;5065320;28;20463;-59
2023/10/14 12:45:14;;;;;;;0.80;0.80;;;15.60;99.90;;;;;;5063066;28;20505;-59
2023/10/14 12:47:48;;;;;;;1.07;0.70;;;15.40;99.90;;;;;;5064030;28;20444;-59
2023/10/14 12:50:19;;;;;;;0.70;0.70;;;15.20;99.90;;;;;;5057913;28;20478;-58
2023/10/14 12:52:49;;;;;;;3.00;0.80;;;15.00;99.90;;;;;;5064531;28;20553;-59
2023/10/14 12:55:22;;;;;;;0.60;0.60;;;14.80;99.90;;;;;;5062178;28;20434;-59
2023/10/14 12:57:48;;;;;;;0.70;0.70;;;14.70;99.90;;;;;;5055210;28;20556;-61
2023/10/14 13:00:19;;;;;;;1.07;0.80;;;14.70;99.90;;;;;;5058689;28;20476;-59
2023/10/14 13:02:45;;;;;;;0.93;0.83;;;14.60;99.90;;;;;;5053684;28;20447;-60
2023/10/14 13:05:14;;;;;;;2.10;0.90;;;14.60;99.90;;;;;;5058520;28;20934;-60
2023/10/14 13:07:40;;;;;;;0.90;0.90;;;14.50;99.90;;;;;;5058577;28;20586;-60
2023/10/14 13:10:08;;;;;;;0.70;0.70;;;14.50;99.90;;;;;;5054098;28;20441;-59
2023/10/14 13:12:34;;;;;;;0.80;0.80;;;14.50;99.90;;;;;;5053157;28;20424;-59
2023/10/14 13:15:04;;;;;;;0.70;0.70;;;14.50;99.90;;;;;;5059567;28;20420;-61
2023/10/14 13:17:35;;;;;;;1.27;0.90;;;14.50;99.90;;;;;;5057349;28;20218;-59
2023/10/14 13:20:01;;;;;;;0.93;0.90;;;14.50;99.90;;;;;;5057993;28;20432;-59
2023/10/14 13:22:29;;;;;;;0.80;0.80;;;14.50;99.90;;;;;;5054440;28;20494;-61
2023/10/14 13:24:55;;;;;;;0.87;0.87;;;14.50;99.90;;;;;;5055657;28;20516;-60
2023/10/14 13:27:21;;;;;;;0.87;0.70;;;14.60;99.90;;;;;;5058080;28;20503;-60
2023/10/14 13:29:47;;;;;;;0.80;0.80;;;14.60;99.90;;;;;;5058129;28;20225;-60
2023/10/14 13:32:16;;;;;;;0.80;0.80;;;14.60;99.90;;;;;;5061325;28;20425;-59
2023/10/14 13:34:45;;;;;;;1.30;0.70;;;14.60;99.90;;;;;;5062004;28;20707;-61
2023/10/14 13:37:13;;;;;;;0.70;0.70;;;14.60;99.90;;;;;;5057429;28;20436;-60
2023/10/14 13:39:41;;;;;;;0.80;0.80;;;14.70;99.90;;;;;;5063294;28;20552;-60
2023/10/14 13:42:06;;;;;;;1.33;0.90;;;14.70;99.90;;;;;;5062199;28;20421;-59